Observations for BOURNEMOUTH AIRPORT, United Kingdom (EGHH)

EGHH 180520Z 25006KT 9999 SCT015 BKN017 15/13 Q1018 
EGHH 180450Z 25007KT 9999 FEW013 BKN018 15/12 Q1018 
EGHH 172220Z 24008KT 6000 OVC003 15/15 Q1017
EGHH 172150Z 24008KT 6000 OVC003 15/15 Q1017
EGHH 172120Z 24008KT 6000 OVC003 15/15 Q1017
EGHH 172050Z 24008KT 6000 OVC003 15/15 Q1017
EGHH 171950Z 23007KT 5000 BR OVC003 15/15 Q1017 
EGHH 171920Z 23006KT 4000 BR OVC003 15/15 Q1017 
EGHH 171850Z 23009KT 4000 BR OVC003 15/14 Q1017 
EGHH 171820Z 22007KT 4000 BR OVC003 15/14 Q1017 
EGHH 171750Z 23009KT 3000 BR OVC003 15/14 Q1017 
EGHH 171720Z 22009KT 2800 BR OVC004 15/14 Q1017 
EGHH 171650Z 21010KT 4500 BR OVC004 15/14 Q1017 
EGHH 171620Z 21009KT 4000 BR -DZ BKN004 14/14 Q1017 
EGHH 171550Z 22010KT 3000 BR -DZ BKN004 14/13 Q1017 
EGHH 171520Z 23012KT 3000 BR -DZ BKN006 14/13 Q1017 
EGHH 171450Z 23013KT 9999 BKN008 15/12 Q1017
EGHH 171420Z 23012KT 9999 BKN010 15/12 Q1017
EGHH 171350Z 23016KT 9999 SCT013 BKN018 16/12 Q1017 
EGHH 171320Z 24014KT 9999 SCT015 BKN024 16/12 Q1017 
EGHH 171250Z 23013KT 9999 SCT017 BKN024 16/11 Q1017 
EGHH 171220Z 24017KT 9999 SCT017 BKN028 16/11 Q1017 
EGHH 171150Z 24013KT 9999 BKN018 SCT028 16/11 Q1017 
EGHH 171120Z 23013KT 9999 BKN018 BKN028 17/12 Q1017 
EGHH 171050Z 23012KT 9999 SCT021 BKN028 16/11 Q1017 
EGHH 171020Z 24015KT 9999 BKN022 SCT033 17/10 Q1017 
EGHH 170950Z 23011KT 9999 SCT024 SCT033 BKN043 17/10 Q1017  
EGHH 170920Z 23011KT 9999 FEW023 BKN027 17/10 Q1017 
EGHH 170850Z 23011KT 9999 FEW028 BKN033 17/10 Q1017 
EGHH 170820Z 25011KT 9999 SCT034 17/10 Q1017
EGHH 170750Z 25012KT 9999 SCT024 16/10 Q1017
EGHH 170720Z 25070KT 9999 SCT035 16/10 Q1017
EGHH 170620Z 25007KT 9999 BKN034 14/11 Q1017
EGHH 170550Z 26007KT 9999 BKN032 14/11 Q1017
EGHH 170520Z 26008KT 9999 BKN037 13/11 Q1016
EGHH 170450Z 24007KT 9999 -RA FEW043 13/11 Q1016